Holman, Minnesota
Current Conditions -  °F | °C
As of 10:15 AM on Thursday 23 Oct 2014 (Local Time) from KGPZ Reporting Station
Overcast Overcast  
Wind Chill: 50°   Ceiling: 500
Heat Index: 50°   Visibility: 8mi
Dew Point: 46°   Wind: 7mph
Humidity: 87%   Direction: 200°SSW
Pressure: 29.95"   Gusts: NA
Location:  47.3121°N, 93.3823°W
Report Text: KGPZ 231515Z AUTO 20006KT 8SM OVC005 10/08 A2995 RMK AO1
Loading
Personal Weather Stations






























Interactive Weather Map
Tropical Storm Tracking
New forecast layout! Learn more

10-Day Weather Forecast

Advertisements
Track Severe Weather on mobile